sensor_id;sensor_type;location;lat;lon;timestamp;P1;durP1;ratioP1;P2;durP2;ratioP2
26474;SDS011;14161;52.270;10.334;2023-11-21T00:01:17;8.05;;;5.68;;
26474;SDS011;14161;52.270;10.334;2023-11-21T00:03:42;10.25;;;5.20;;
26474;SDS011;14161;52.270;10.334;2023-11-21T00:06:08;14.32;;;6.30;;
26474;SDS011;14161;52.270;10.334;2023-11-21T00:08:34;10.10;;;6.18;;
26474;SDS011;14161;52.270;10.334;2023-11-21T00:11:00;10.00;;;6.53;;
26474;SDS011;14161;52.270;10.334;2023-11-21T00:13:26;9.60;;;5.60;;
26474;SDS011;14161;52.270;10.334;2023-11-21T00:15:52;7.18;;;5.68;;
26474;SDS011;14161;52.270;10.334;2023-11-21T00:18:18;12.23;;;6.45;;
26474;SDS011;14161;52.270;10.334;2023-11-21T00:20:44;10.90;;;6.63;;
26474;SDS011;14161;52.270;10.334;2023-11-21T00:23:10;8.40;;;6.03;;
26474;SDS011;14161;52.270;10.334;2023-11-21T00:25:35;12.35;;;7.07;;
26474;SDS011;14161;52.270;10.334;2023-11-21T00:28:01;12.43;;;6.57;;
26474;SDS011;14161;52.270;10.334;2023-11-21T00:30:27;9.45;;;6.15;;
26474;SDS011;14161;52.270;10.334;2023-11-21T00:32:54;11.98;;;6.88;;
26474;SDS011;14161;52.270;10.334;2023-11-21T00:35:19;16.83;;;8.23;;
26474;SDS011;14161;52.270;10.334;2023-11-21T00:37:45;13.32;;;6.95;;
26474;SDS011;14161;52.270;10.334;2023-11-21T00:40:11;9.25;;;6.22;;
26474;SDS011;14161;52.270;10.334;2023-11-21T00:42:37;11.82;;;6.82;;
26474;SDS011;14161;52.270;10.334;2023-11-21T00:45:03;11.23;;;6.97;;
26474;SDS011;14161;52.270;10.334;2023-11-21T00:47:29;12.43;;;6.80;;
26474;SDS011;14161;52.270;10.334;2023-11-21T00:49:54;12.20;;;7.60;;
26474;SDS011;14161;52.270;10.334;2023-11-21T00:52:20;12.75;;;7.55;;
26474;SDS011;14161;52.270;10.334;2023-11-21T00:54:46;11.73;;;7.20;;
26474;SDS011;14161;52.270;10.334;2023-11-21T00:57:13;12.38;;;7.03;;
26474;SDS011;14161;52.270;10.334;2023-11-21T00:59:39;11.82;;;7.22;;
26474;SDS011;14161;52.270;10.334;2023-11-21T01:02:06;18.48;;;8.38;;
26474;SDS011;14161;52.270;10.334;2023-11-21T01:04:35;14.07;;;7.85;;
26474;SDS011;14161;52.270;10.334;2023-11-21T01:07:00;9.25;;;7.20;;
26474;SDS011;14161;52.270;10.334;2023-11-21T01:09:26;15.98;;;8.75;;
26474;SDS011;14161;52.270;10.334;2023-11-21T01:11:53;14.40;;;7.47;;
26474;SDS011;14161;52.270;10.334;2023-11-21T01:14:18;12.35;;;8.00;;
26474;SDS011;14161;52.270;10.334;2023-11-21T01:16:44;13.10;;;8.02;;
26474;SDS011;14161;52.270;10.334;2023-11-21T01:19:10;14.18;;;8.50;;
26474;SDS011;14161;52.270;10.334;2023-11-21T01:21:35;12.00;;;7.78;;
26474;SDS011;14161;52.270;10.334;2023-11-21T01:24:02;13.25;;;8.23;;
26474;SDS011;14161;52.270;10.334;2023-11-21T01:26:28;13.23;;;7.65;;
26474;SDS011;14161;52.270;10.334;2023-11-21T01:28:54;15.30;;;8.02;;
26474;SDS011;14161;52.270;10.334;2023-11-21T01:31:19;15.23;;;8.75;;
26474;SDS011;14161;52.270;10.334;2023-11-21T01:33:46;14.15;;;9.18;;
26474;SDS011;14161;52.270;10.334;2023-11-21T01:36:11;10.05;;;7.90;;
26474;SDS011;14161;52.270;10.334;2023-11-21T01:38:37;15.25;;;8.73;;
26474;SDS011;14161;52.270;10.334;2023-11-21T01:41:02;17.80;;;9.70;;
26474;SDS011;14161;52.270;10.334;2023-11-21T01:43:29;12.43;;;8.23;;
26474;SDS011;14161;52.270;10.334;2023-11-21T01:45:56;15.55;;;8.95;;
26474;SDS011;14161;52.270;10.334;2023-11-21T01:48:25;13.90;;;8.93;;
26474;SDS011;14161;52.270;10.334;2023-11-21T01:50:51;19.45;;;9.68;;
26474;SDS011;14161;52.270;10.334;2023-11-21T01:53:17;13.68;;;8.45;;
26474;SDS011;14161;52.270;10.334;2023-11-21T01:55:43;11.75;;;8.57;;
26474;SDS011;14161;52.270;10.334;2023-11-21T01:58:10;17.85;;;9.57;;
26474;SDS011;14161;52.270;10.334;2023-11-21T02:00:37;16.17;;;9.48;;
26474;SDS011;14161;52.270;10.334;2023-11-21T02:03:03;14.00;;;9.65;;
26474;SDS011;14161;52.270;10.334;2023-11-21T02:05:29;13.35;;;9.60;;
26474;SDS011;14161;52.270;10.334;2023-11-21T02:07:56;16.75;;;9.68;;
26474;SDS011;14161;52.270;10.334;2023-11-21T02:10:25;14.05;;;9.50;;
26474;SDS011;14161;52.270;10.334;2023-11-21T02:12:51;16.83;;;9.38;;
26474;SDS011;14161;52.270;10.334;2023-11-21T02:15:18;17.38;;;10.23;;
26474;SDS011;14161;52.270;10.334;2023-11-21T02:17:48;13.35;;;8.85;;
26474;SDS011;14161;52.270;10.334;2023-11-21T02:20:16;14.43;;;9.27;;
26474;SDS011;14161;52.270;10.334;2023-11-21T02:22:43;16.60;;;9.45;;
26474;SDS011;14161;52.270;10.334;2023-11-21T02:27:58;18.92;;;10.05;;
26474;SDS011;14161;52.270;10.334;2023-11-21T02:30:26;16.40;;;10.48;;
26474;SDS011;14161;52.270;10.334;2023-11-21T02:32:53;14.60;;;9.23;;
26474;SDS011;14161;52.270;10.334;2023-11-21T02:35:19;16.67;;;9.40;;
26474;SDS011;14161;52.270;10.334;2023-11-21T02:37:48;18.73;;;11.65;;
26474;SDS011;14161;52.270;10.334;2023-11-21T02:40:15;17.05;;;10.73;;
26474;SDS011;14161;52.270;10.334;2023-11-21T02:42:46;15.43;;;9.80;;
26474;SDS011;14161;52.270;10.334;2023-11-21T02:45:16;19.13;;;10.73;;
26474;SDS011;14161;52.270;10.334;2023-11-21T02:47:45;15.48;;;9.70;;
26474;SDS011;14161;52.270;10.334;2023-11-21T02:50:11;21.88;;;12.70;;
26474;SDS011;14161;52.270;10.334;2023-11-21T02:52:37;19.95;;;11.18;;
26474;SDS011;14161;52.270;10.334;2023-11-21T02:55:03;19.58;;;11.57;;
26474;SDS011;14161;52.270;10.334;2023-11-21T02:57:29;19.90;;;11.38;;
26474;SDS011;14161;52.270;10.334;2023-11-21T02:59:54;16.05;;;10.35;;
26474;SDS011;14161;52.270;10.334;2023-11-21T03:02:20;19.60;;;11.88;;
26474;SDS011;14161;52.270;10.334;2023-11-21T03:04:46;18.58;;;11.40;;
26474;SDS011;14161;52.270;10.334;2023-11-21T03:07:13;18.85;;;11.48;;
26474;SDS011;14161;52.270;10.334;2023-11-21T03:09:39;16.90;;;11.07;;
26474;SDS011;14161;52.270;10.334;2023-11-21T03:12:05;17.45;;;11.10;;
26474;SDS011;14161;52.270;10.334;2023-11-21T03:14:31;16.20;;;10.88;;
26474;SDS011;14161;52.270;10.334;2023-11-21T03:16:56;19.23;;;11.65;;
26474;SDS011;14161;52.270;10.334;2023-11-21T03:19:22;16.40;;;11.48;;
26474;SDS011;14161;52.270;10.334;2023-11-21T03:21:48;18.05;;;10.45;;
26474;SDS011;14161;52.270;10.334;2023-11-21T03:24:14;17.15;;;10.82;;
26474;SDS011;14161;52.270;10.334;2023-11-21T03:26:46;16.98;;;11.77;;
26474;SDS011;14161;52.270;10.334;2023-11-21T03:29:12;17.50;;;11.70;;
26474;SDS011;14161;52.270;10.334;2023-11-21T03:31:38;16.95;;;11.52;;
26474;SDS011;14161;52.270;10.334;2023-11-21T03:34:03;18.50;;;11.07;;
26474;SDS011;14161;52.270;10.334;2023-11-21T03:36:29;15.40;;;10.43;;
26474;SDS011;14161;52.270;10.334;2023-11-21T03:38:54;20.17;;;11.57;;
26474;SDS011;14161;52.270;10.334;2023-11-21T03:41:21;16.85;;;10.60;;
26474;SDS011;14161;52.270;10.334;2023-11-21T03:43:46;17.83;;;11.52;;
26474;SDS011;14161;52.270;10.334;2023-11-21T03:46:13;20.50;;;11.65;;
26474;SDS011;14161;52.270;10.334;2023-11-21T03:48:39;19.98;;;11.90;;
26474;SDS011;14161;52.270;10.334;2023-11-21T03:51:04;17.85;;;11.88;;
26474;SDS011;14161;52.270;10.334;2023-11-21T03:53:33;22.33;;;12.27;;
26474;SDS011;14161;52.270;10.334;2023-11-21T03:56:02;15.77;;;11.35;;
26474;SDS011;14161;52.270;10.334;2023-11-21T03:58:28;19.02;;;12.68;;
26474;SDS011;14161;52.270;10.334;2023-11-21T04:00:54;17.92;;;11.20;;
26474;SDS011;14161;52.270;10.334;2023-11-21T04:03:19;17.52;;;11.63;;
26474;SDS011;14161;52.270;10.334;2023-11-21T04:05:45;18.88;;;11.27;;
26474;SDS011;14161;52.270;10.334;2023-11-21T04:08:11;17.98;;;11.20;;
26474;SDS011;14161;52.270;10.334;2023-11-21T04:10:36;18.20;;;11.98;;
26474;SDS011;14161;52.270;10.334;2023-11-21T04:13:02;23.20;;;11.65;;
26474;SDS011;14161;52.270;10.334;2023-11-21T04:15:27;17.15;;;11.05;;
26474;SDS011;14161;52.270;10.334;2023-11-21T04:17:53;16.77;;;11.20;;
26474;SDS011;14161;52.270;10.334;2023-11-21T04:20:18;16.17;;;11.15;;
26474;SDS011;14161;52.270;10.334;2023-11-21T04:22:44;19.38;;;11.32;;
26474;SDS011;14161;52.270;10.334;2023-11-21T04:25:10;17.10;;;10.70;;
26474;SDS011;14161;52.270;10.334;2023-11-21T04:27:41;16.05;;;11.02;;
26474;SDS011;14161;52.270;10.334;2023-11-21T04:30:09;15.15;;;10.35;;
26474;SDS011;14161;52.270;10.334;2023-11-21T04:32:35;15.20;;;10.93;;
26474;SDS011;14161;52.270;10.334;2023-11-21T04:35:00;16.48;;;11.40;;
26474;SDS011;14161;52.270;10.334;2023-11-21T04:37:26;21.65;;;12.40;;
26474;SDS011;14161;52.270;10.334;2023-11-21T04:39:51;20.90;;;11.95;;
26474;SDS011;14161;52.270;10.334;2023-11-21T04:42:17;18.85;;;12.30;;
26474;SDS011;14161;52.270;10.334;2023-11-21T04:44:42;19.75;;;12.43;;
26474;SDS011;14161;52.270;10.334;2023-11-21T04:47:09;18.75;;;12.50;;
26474;SDS011;14161;52.270;10.334;2023-11-21T04:49:34;25.02;;;14.15;;
26474;SDS011;14161;52.270;10.334;2023-11-21T04:52:00;19.65;;;13.00;;
26474;SDS011;14161;52.270;10.334;2023-11-21T04:54:27;17.13;;;12.35;;
26474;SDS011;14161;52.270;10.334;2023-11-21T04:56:52;21.33;;;13.48;;
26474;SDS011;14161;52.270;10.334;2023-11-21T04:59:18;23.00;;;13.43;;
26474;SDS011;14161;52.270;10.334;2023-11-21T05:01:43;23.25;;;13.52;;
26474;SDS011;14161;52.270;10.334;2023-11-21T05:04:09;25.02;;;14.00;;
26474;SDS011;14161;52.270;10.334;2023-11-21T05:06:34;24.15;;;14.38;;
26474;SDS011;14161;52.270;10.334;2023-11-21T05:09:00;21.30;;;13.38;;
26474;SDS011;14161;52.270;10.334;2023-11-21T05:11:25;22.88;;;13.73;;
26474;SDS011;14161;52.270;10.334;2023-11-21T05:13:51;23.23;;;15.15;;
26474;SDS011;14161;52.270;10.334;2023-11-21T05:16:18;21.50;;;13.90;;
26474;SDS011;14161;52.270;10.334;2023-11-21T05:18:44;23.77;;;15.70;;
26474;SDS011;14161;52.270;10.334;2023-11-21T05:21:09;22.35;;;13.63;;
26474;SDS011;14161;52.270;10.334;2023-11-21T05:23:35;24.20;;;14.20;;
26474;SDS011;14161;52.270;10.334;2023-11-21T05:26:01;25.90;;;14.45;;
26474;SDS011;14161;52.270;10.334;2023-11-21T05:28:26;23.33;;;14.10;;
26474;SDS011;14161;52.270;10.334;2023-11-21T05:30:52;23.67;;;14.63;;
26474;SDS011;14161;52.270;10.334;2023-11-21T05:33:18;21.42;;;13.98;;
26474;SDS011;14161;52.270;10.334;2023-11-21T05:35:43;20.98;;;13.90;;
26474;SDS011;14161;52.270;10.334;2023-11-21T05:38:09;23.75;;;14.48;;
26474;SDS011;14161;52.270;10.334;2023-11-21T05:40:34;20.92;;;13.77;;
26474;SDS011;14161;52.270;10.334;2023-11-21T05:43:00;24.30;;;15.77;;
26474;SDS011;14161;52.270;10.334;2023-11-21T05:45:25;23.83;;;15.63;;
26474;SDS011;14161;52.270;10.334;2023-11-21T05:47:54;23.60;;;15.27;;
26474;SDS011;14161;52.270;10.334;2023-11-21T05:50:22;22.92;;;15.20;;
26474;SDS011;14161;52.270;10.334;2023-11-21T05:52:47;24.25;;;15.50;;
26474;SDS011;14161;52.270;10.334;2023-11-21T05:55:13;24.48;;;14.93;;
26474;SDS011;14161;52.270;10.334;2023-11-21T05:57:40;23.17;;;15.93;;
26474;SDS011;14161;52.270;10.334;2023-11-21T06:00:09;21.65;;;14.73;;
26474;SDS011;14161;52.270;10.334;2023-11-21T06:02:41;20.33;;;14.68;;
26474;SDS011;14161;52.270;10.334;2023-11-21T06:05:07;21.17;;;14.00;;
26474;SDS011;14161;52.270;10.334;2023-11-21T06:07:33;21.30;;;14.10;;
26474;SDS011;14161;52.270;10.334;2023-11-21T06:09:58;20.00;;;13.93;;
26474;SDS011;14161;52.270;10.334;2023-11-21T06:12:24;18.05;;;12.40;;
26474;SDS011;14161;52.270;10.334;2023-11-21T06:14:50;17.70;;;11.75;;
26474;SDS011;14161;52.270;10.334;2023-11-21T06:17:16;17.70;;;11.85;;
26474;SDS011;14161;52.270;10.334;2023-11-21T06:19:42;18.52;;;12.57;;
26474;SDS011;14161;52.270;10.334;2023-11-21T06:22:10;15.60;;;11.77;;
26474;SDS011;14161;52.270;10.334;2023-11-21T06:24:36;15.88;;;10.73;;
26474;SDS011;14161;52.270;10.334;2023-11-21T06:27:03;14.73;;;10.05;;
26474;SDS011;14161;52.270;10.334;2023-11-21T06:29:30;13.95;;;9.88;;
26474;SDS011;14161;52.270;10.334;2023-11-21T06:31:55;9.98;;;7.45;;
26474;SDS011;14161;52.270;10.334;2023-11-21T06:34:20;6.38;;;4.72;;
26474;SDS011;14161;52.270;10.334;2023-11-21T06:36:47;6.10;;;3.67;;
26474;SDS011;14161;52.270;10.334;2023-11-21T06:39:12;5.15;;;3.33;;
26474;SDS011;14161;52.270;10.334;2023-11-21T06:41:40;3.80;;;2.88;;
26474;SDS011;14161;52.270;10.334;2023-11-21T06:44:05;3.92;;;3.03;;
26474;SDS011;14161;52.270;10.334;2023-11-21T06:46:31;4.43;;;3.35;;
26474;SDS011;14161;52.270;10.334;2023-11-21T06:48:56;4.22;;;3.38;;
26474;SDS011;14161;52.270;10.334;2023-11-21T06:51:22;5.22;;;4.05;;
26474;SDS011;14161;52.270;10.334;2023-11-21T06:53:47;5.47;;;4.10;;
26474;SDS011;14161;52.270;10.334;2023-11-21T06:56:16;6.47;;;4.20;;
26474;SDS011;14161;52.270;10.334;2023-11-21T06:58:42;6.38;;;4.70;;
26474;SDS011;14161;52.270;10.334;2023-11-21T07:01:10;7.20;;;5.32;;
26474;SDS011;14161;52.270;10.334;2023-11-21T07:03:36;7.03;;;5.25;;
26474;SDS011;14161;52.270;10.334;2023-11-21T07:06:02;7.13;;;5.20;;
26474;SDS011;14161;52.270;10.334;2023-11-21T07:08:28;6.18;;;4.70;;
26474;SDS011;14161;52.270;10.334;2023-11-21T07:10:54;7.32;;;5.28;;
26474;SDS011;14161;52.270;10.334;2023-11-21T07:13:19;7.95;;;5.15;;
26474;SDS011;14161;52.270;10.334;2023-11-21T07:15:45;8.27;;;5.28;;
26474;SDS011;14161;52.270;10.334;2023-11-21T07:18:10;7.85;;;5.30;;
26474;SDS011;14161;52.270;10.334;2023-11-21T07:20:36;7.65;;;5.53;;
26474;SDS011;14161;52.270;10.334;2023-11-21T07:23:02;7.35;;;5.50;;
26474;SDS011;14161;52.270;10.334;2023-11-21T07:25:29;8.77;;;5.93;;
26474;SDS011;14161;52.270;10.334;2023-11-21T07:27:54;8.60;;;6.45;;
26474;SDS011;14161;52.270;10.334;2023-11-21T07:30:20;8.98;;;6.95;;
26474;SDS011;14161;52.270;10.334;2023-11-21T07:32:47;8.38;;;6.38;;
26474;SDS011;14161;52.270;10.334;2023-11-21T07:35:13;11.70;;;7.40;;
26474;SDS011;14161;52.270;10.334;2023-11-21T07:37:38;12.43;;;8.43;;
26474;SDS011;14161;52.270;10.334;2023-11-21T07:40:04;10.75;;;7.38;;
26474;SDS011;14161;52.270;10.334;2023-11-21T07:42:30;9.43;;;7.57;;
26474;SDS011;14161;52.270;10.334;2023-11-21T07:44:56;11.00;;;7.60;;
26474;SDS011;14161;52.270;10.334;2023-11-21T07:47:21;10.52;;;7.47;;
26474;SDS011;14161;52.270;10.334;2023-11-21T07:49:47;12.45;;;7.82;;
26474;SDS011;14161;52.270;10.334;2023-11-21T07:52:13;10.18;;;7.38;;
26474;SDS011;14161;52.270;10.334;2023-11-21T07:54:41;9.18;;;7.18;;
26474;SDS011;14161;52.270;10.334;2023-11-21T07:57:07;12.65;;;8.57;;
26474;SDS011;14161;52.270;10.334;2023-11-21T07:59:32;10.88;;;7.22;;
26474;SDS011;14161;52.270;10.334;2023-11-21T08:01:58;12.98;;;9.07;;
26474;SDS011;14161;52.270;10.334;2023-11-21T08:04:23;11.93;;;8.93;;
26474;SDS011;14161;52.270;10.334;2023-11-21T08:06:49;10.85;;;7.85;;
26474;SDS011;14161;52.270;10.334;2023-11-21T08:09:14;12.73;;;8.43;;
26474;SDS011;14161;52.270;10.334;2023-11-21T08:11:42;11.23;;;7.35;;
26474;SDS011;14161;52.270;10.334;2023-11-21T08:14:08;11.18;;;7.43;;
26474;SDS011;14161;52.270;10.334;2023-11-21T08:16:33;15.88;;;8.02;;
26474;SDS011;14161;52.270;10.334;2023-11-21T08:18:58;9.73;;;7.38;;
26474;SDS011;14161;52.270;10.334;2023-11-21T08:21:24;10.82;;;7.90;;
26474;SDS011;14161;52.270;10.334;2023-11-21T08:23:50;11.18;;;8.40;;
26474;SDS011;14161;52.270;10.334;2023-11-21T08:26:19;11.43;;;8.43;;
26474;SDS011;14161;52.270;10.334;2023-11-21T08:28:45;11.52;;;8.85;;
26474;SDS011;14161;52.270;10.334;2023-11-21T08:31:12;11.85;;;8.50;;
26474;SDS011;14161;52.270;10.334;2023-11-21T08:33:38;11.10;;;8.32;;
26474;SDS011;14161;52.270;10.334;2023-11-21T08:36:06;12.98;;;8.85;;
26474;SDS011;14161;52.270;10.334;2023-11-21T08:38:33;10.30;;;7.75;;
26474;SDS011;14161;52.270;10.334;2023-11-21T08:41:00;10.05;;;7.47;;
26474;SDS011;14161;52.270;10.334;2023-11-21T08:43:26;10.60;;;7.80;;
26474;SDS011;14161;52.270;10.334;2023-11-21T08:45:52;9.70;;;6.80;;
26474;SDS011;14161;52.270;10.334;2023-11-21T08:48:18;10.02;;;6.97;;
26474;SDS011;14161;52.270;10.334;2023-11-21T08:50:43;7.85;;;6.28;;
26474;SDS011;14161;52.270;10.334;2023-11-21T08:53:09;8.07;;;5.80;;
26474;SDS011;14161;52.270;10.334;2023-11-21T08:55:36;7.13;;;5.30;;
26474;SDS011;14161;52.270;10.334;2023-11-21T08:58:02;6.70;;;5.60;;
26474;SDS011;14161;52.270;10.334;2023-11-21T09:00:27;6.10;;;4.63;;
26474;SDS011;14161;52.270;10.334;2023-11-21T09:02:54;6.35;;;4.93;;
26474;SDS011;14161;52.270;10.334;2023-11-21T09:05:19;6.15;;;5.20;;
26474;SDS011;14161;52.270;10.334;2023-11-21T09:07:45;4.78;;;3.80;;
26474;SDS011;14161;52.270;10.334;2023-11-21T09:10:11;5.32;;;4.53;;
26474;SDS011;14161;52.270;10.334;2023-11-21T09:12:37;5.97;;;4.93;;
26474;SDS011;14161;52.270;10.334;2023-11-21T09:15:07;6.25;;;5.00;;
26474;SDS011;14161;52.270;10.334;2023-11-21T09:17:34;5.82;;;4.88;;
26474;SDS011;14161;52.270;10.334;2023-11-21T09:20:00;7.63;;;5.20;;
26474;SDS011;14161;52.270;10.334;2023-11-21T09:22:26;8.13;;;5.63;;
26474;SDS011;14161;52.270;10.334;2023-11-21T09:24:52;6.72;;;5.47;;
26474;SDS011;14161;52.270;10.334;2023-11-21T09:27:17;7.25;;;5.28;;
26474;SDS011;14161;52.270;10.334;2023-11-21T09:29:43;6.53;;;4.95;;
26474;SDS011;14161;52.270;10.334;2023-11-21T09:32:09;8.18;;;6.20;;
26474;SDS011;14161;52.270;10.334;2023-11-21T09:34:39;5.95;;;4.80;;
26474;SDS011;14161;52.270;10.334;2023-11-21T09:37:04;7.57;;;6.47;;
26474;SDS011;14161;52.270;10.334;2023-11-21T09:39:34;13.80;;;11.07;;
26474;SDS011;14161;52.270;10.334;2023-11-21T09:42:17;11.05;;;8.18;;
26474;SDS011;14161;52.270;10.334;2023-11-21T09:47:29;6.75;;;5.40;;
26474;SDS011;14161;52.270;10.334;2023-11-21T09:49:55;7.10;;;5.75;;
26474;SDS011;14161;52.270;10.334;2023-11-21T09:52:28;7.03;;;5.28;;
26474;SDS011;14161;52.270;10.334;2023-11-21T09:54:54;6.35;;;5.28;;
26474;SDS011;14161;52.270;10.334;2023-11-21T09:57:22;6.43;;;4.82;;
26474;SDS011;14161;52.270;10.334;2023-11-21T09:59:51;7.75;;;5.45;;
26474;SDS011;14161;52.270;10.334;2023-11-21T10:02:25;6.13;;;4.35;;
26474;SDS011;14161;52.270;10.334;2023-11-21T10:04:53;5.93;;;4.78;;
26474;SDS011;14161;52.270;10.334;2023-11-21T10:07:20;6.15;;;5.28;;
26474;SDS011;14161;52.270;10.334;2023-11-21T10:09:45;7.22;;;5.75;;
26474;SDS011;14161;52.270;10.334;2023-11-21T10:12:11;7.72;;;6.18;;
26474;SDS011;14161;52.270;10.334;2023-11-21T10:14:40;6.20;;;4.85;;
26474;SDS011;14161;52.270;10.334;2023-11-21T10:17:06;6.35;;;5.32;;
26474;SDS011;14161;52.270;10.334;2023-11-21T10:19:33;7.88;;;6.13;;
26474;SDS011;14161;52.270;10.334;2023-11-21T10:22:00;7.25;;;5.88;;
26474;SDS011;14161;52.270;10.334;2023-11-21T10:24:26;6.65;;;5.25;;
26474;SDS011;14161;52.270;10.334;2023-11-21T10:26:52;5.25;;;4.63;;
26474;SDS011;14161;52.270;10.334;2023-11-21T10:29:18;5.95;;;4.68;;
26474;SDS011;14161;52.270;10.334;2023-11-21T10:31:48;6.20;;;5.25;;
26474;SDS011;14161;52.270;10.334;2023-11-21T10:34:15;6.10;;;4.28;;
26474;SDS011;14161;52.270;10.334;2023-11-21T10:36:44;8.00;;;4.60;;
26474;SDS011;14161;52.270;10.334;2023-11-21T10:39:13;5.68;;;4.32;;
26474;SDS011;14161;52.270;10.334;2023-11-21T10:41:43;5.85;;;4.25;;
26474;SDS011;14161;52.270;10.334;2023-11-21T10:44:10;6.70;;;4.78;;
26474;SDS011;14161;52.270;10.334;2023-11-21T10:46:36;6.68;;;5.70;;
26474;SDS011;14161;52.270;10.334;2023-11-21T10:49:01;11.00;;;9.30;;
26474;SDS011;14161;52.270;10.334;2023-11-21T10:51:27;23.73;;;15.85;;
26474;SDS011;14161;52.270;10.334;2023-11-21T10:53:53;38.40;;;25.27;;
26474;SDS011;14161;52.270;10.334;2023-11-21T10:56:19;33.83;;;23.48;;
26474;SDS011;14161;52.270;10.334;2023-11-21T10:58:49;17.90;;;13.52;;
26474;SDS011;14161;52.270;10.334;2023-11-21T11:01:15;11.02;;;8.77;;
26474;SDS011;14161;52.270;10.334;2023-11-21T11:03:43;7.13;;;5.80;;
26474;SDS011;14161;52.270;10.334;2023-11-21T11:06:09;5.85;;;4.80;;
26474;SDS011;14161;52.270;10.334;2023-11-21T11:08:39;5.53;;;4.70;;
26474;SDS011;14161;52.270;10.334;2023-11-21T11:11:06;6.47;;;4.95;;
26474;SDS011;14161;52.270;10.334;2023-11-21T11:13:31;4.78;;;4.28;;
26474;SDS011;14161;52.270;10.334;2023-11-21T11:15:57;5.57;;;4.40;;
26474;SDS011;14161;52.270;10.334;2023-11-21T11:18:30;5.72;;;4.53;;
26474;SDS011;14161;52.270;10.334;2023-11-21T11:21:07;7.22;;;4.80;;
26474;SDS011;14161;52.270;10.334;2023-11-21T11:34:19;6.03;;;4.30;;
26474;SDS011;14161;52.270;10.334;2023-11-21T11:37:05;5.03;;;3.97;;
26474;SDS011;14161;52.270;10.334;2023-11-21T11:39:42;4.85;;;3.97;;
26474;SDS011;14161;52.270;10.334;2023-11-21T11:42:12;5.07;;;3.88;;
26474;SDS011;14161;52.270;10.334;2023-11-21T11:47:27;6.75;;;4.45;;
26474;SDS011;14161;52.270;10.334;2023-11-21T11:49:59;6.50;;;3.88;;
26474;SDS011;14161;52.270;10.334;2023-11-21T11:52:51;4.95;;;3.97;;
26474;SDS011;14161;52.270;10.334;2023-11-21T11:55:20;4.53;;;3.65;;
26474;SDS011;14161;52.270;10.334;2023-11-21T11:57:47;5.93;;;4.10;;
26474;SDS011;14161;52.270;10.334;2023-11-21T12:05:20;9.30;;;6.63;;
26474;SDS011;14161;52.270;10.334;2023-11-21T12:10:19;6.53;;;4.00;;
26474;SDS011;14161;52.270;10.334;2023-11-21T12:12:49;3.72;;;3.33;;
26474;SDS011;14161;52.270;10.334;2023-11-21T12:15:25;7.25;;;3.85;;
26474;SDS011;14161;52.270;10.334;2023-11-21T12:17:52;4.78;;;3.85;;
26474;SDS011;14161;52.270;10.334;2023-11-21T12:20:18;3.85;;;3.45;;
26474;SDS011;14161;52.270;10.334;2023-11-21T12:22:45;5.97;;;4.07;;
26474;SDS011;14161;52.270;10.334;2023-11-21T12:25:18;4.78;;;4.20;;
26474;SDS011;14161;52.270;10.334;2023-11-21T12:27:48;5.38;;;3.72;;
26474;SDS011;14161;52.270;10.334;2023-11-21T12:30:20;4.50;;;3.40;;
26474;SDS011;14161;52.270;10.334;2023-11-21T12:32:48;4.20;;;3.35;;
26474;SDS011;14161;52.270;10.334;2023-11-21T12:35:16;4.72;;;4.07;;
26474;SDS011;14161;52.270;10.334;2023-11-21T12:37:44;6.65;;;4.00;;
26474;SDS011;14161;52.270;10.334;2023-11-21T12:40:10;3.55;;;2.85;;
26474;SDS011;14161;52.270;10.334;2023-11-21T12:43:01;4.07;;;3.20;;
26474;SDS011;14161;52.270;10.334;2023-11-21T12:45:29;3.58;;;3.17;;
26474;SDS011;14161;52.270;10.334;2023-11-21T12:47:56;3.80;;;3.03;;
26474;SDS011;14161;52.270;10.334;2023-11-21T12:50:25;4.13;;;3.17;;
26474;SDS011;14161;52.270;10.334;2023-11-21T12:53:00;3.70;;;3.00;;
26474;SDS011;14161;52.270;10.334;2023-11-21T12:55:32;4.47;;;3.08;;
26474;SDS011;14161;52.270;10.334;2023-11-21T12:58:04;3.63;;;2.55;;
26474;SDS011;14161;52.270;10.334;2023-11-21T13:00:39;3.75;;;2.97;;
26474;SDS011;14161;52.270;10.334;2023-11-21T13:03:10;3.40;;;2.60;;
26474;SDS011;14161;52.270;10.334;2023-11-21T13:05:37;3.67;;;2.75;;
26474;SDS011;14161;52.270;10.334;2023-11-21T13:08:06;3.90;;;2.83;;
26474;SDS011;14161;52.270;10.334;2023-11-21T13:10:34;3.75;;;2.95;;
26474;SDS011;14161;52.270;10.334;2023-11-21T13:13:05;3.33;;;2.75;;
26474;SDS011;14161;52.270;10.334;2023-11-21T13:15:34;3.78;;;2.97;;
26474;SDS011;14161;52.270;10.334;2023-11-21T13:18:01;2.63;;;2.40;;
26474;SDS011;14161;52.270;10.334;2023-11-21T13:20:27;2.80;;;2.50;;
26474;SDS011;14161;52.270;10.334;2023-11-21T13:22:56;2.92;;;1.85;;
26474;SDS011;14161;52.270;10.334;2023-11-21T13:25:26;2.47;;;2.03;;
26474;SDS011;14161;52.270;10.334;2023-11-21T13:27:55;3.15;;;2.30;;
26474;SDS011;14161;52.270;10.334;2023-11-21T13:30:21;2.45;;;2.15;;
26474;SDS011;14161;52.270;10.334;2023-11-21T13:32:52;2.90;;;2.40;;
26474;SDS011;14161;52.270;10.334;2023-11-21T13:35:18;2.38;;;2.10;;
26474;SDS011;14161;52.270;10.334;2023-11-21T13:37:55;3.30;;;2.47;;
26474;SDS011;14161;52.270;10.334;2023-11-21T13:40:22;2.67;;;2.20;;
26474;SDS011;14161;52.270;10.334;2023-11-21T13:42:55;3.47;;;2.60;;
26474;SDS011;14161;52.270;10.334;2023-11-21T13:45:24;2.58;;;2.00;;
26474;SDS011;14161;52.270;10.334;2023-11-21T13:47:51;5.47;;;1.88;;
26474;SDS011;14161;52.270;10.334;2023-11-21T13:50:20;3.13;;;2.20;;
26474;SDS011;14161;52.270;10.334;2023-11-21T13:52:49;2.45;;;2.03;;
26474;SDS011;14161;52.270;10.334;2023-11-21T13:55:19;3.05;;;2.05;;
26474;SDS011;14161;52.270;10.334;2023-11-21T13:57:46;1.92;;;1.70;;
26474;SDS011;14161;52.270;10.334;2023-11-21T14:00:18;2.03;;;1.80;;
26474;SDS011;14161;52.270;10.334;2023-11-21T14:03:02;2.63;;;1.92;;
26474;SDS011;14161;52.270;10.334;2023-11-21T14:05:31;2.45;;;2.13;;
26474;SDS011;14161;52.270;10.334;2023-11-21T14:07:59;2.72;;;1.92;;
26474;SDS011;14161;52.270;10.334;2023-11-21T14:10:32;3.35;;;2.08;;
26474;SDS011;14161;52.270;10.334;2023-11-21T14:13:05;2.42;;;1.73;;
26474;SDS011;14161;52.270;10.334;2023-11-21T14:15:31;2.83;;;2.17;;
26474;SDS011;14161;52.270;10.334;2023-11-21T14:17:58;2.58;;;2.17;;
26474;SDS011;14161;52.270;10.334;2023-11-21T14:20:27;3.28;;;2.97;;
26474;SDS011;14161;52.270;10.334;2023-11-21T14:22:54;3.85;;;3.25;;
26474;SDS011;14161;52.270;10.334;2023-11-21T14:25:19;5.43;;;4.13;;
26474;SDS011;14161;52.270;10.334;2023-11-21T14:27:46;7.43;;;5.90;;
26474;SDS011;14161;52.270;10.334;2023-11-21T14:30:12;18.40;;;13.70;;
26474;SDS011;14161;52.270;10.334;2023-11-21T14:32:38;23.92;;;17.35;;
26474;SDS011;14161;52.270;10.334;2023-11-21T14:35:04;16.13;;;13.88;;
26474;SDS011;14161;52.270;10.334;2023-11-21T14:37:30;21.58;;;19.27;;
26474;SDS011;14161;52.270;10.334;2023-11-21T14:39:55;18.30;;;15.27;;
26474;SDS011;14161;52.270;10.334;2023-11-21T14:42:22;11.93;;;10.73;;
26474;SDS011;14161;52.270;10.334;2023-11-21T14:44:50;7.78;;;6.95;;
26474;SDS011;14161;52.270;10.334;2023-11-21T14:47:17;4.50;;;4.10;;
26474;SDS011;14161;52.270;10.334;2023-11-21T14:49:44;3.75;;;3.15;;